createdAt,value
2022-11-12T00:01:06.756Z,16.88
2022-11-12T00:03:33.783Z,24.98
2022-11-12T00:06:00.729Z,43.75
2022-11-12T00:08:28.066Z,17.63
2022-11-12T00:10:55.344Z,23.33
2022-11-12T00:13:22.372Z,69.72
2022-11-12T00:15:49.324Z,29.67
2022-11-12T00:18:16.270Z,24.95
2022-11-12T00:20:44.196Z,23.77
2022-11-12T00:23:11.258Z,26.13
2022-11-12T00:25:38.338Z,24.73
2022-11-12T00:28:07.771Z,62.05
2022-11-12T00:30:37.116Z,35.65
2022-11-12T00:33:05.098Z,75.38
2022-11-12T00:35:33.363Z,58.60
2022-11-12T00:38:01.682Z,53.13
2022-11-12T00:40:29.440Z,59.55
2022-11-12T00:42:56.456Z,64.97
2022-11-12T00:45:24.501Z,24.33
2022-11-12T00:47:55.984Z,64.95
2022-11-12T00:50:23.382Z,59.97
2022-11-12T00:52:54.867Z,35.78
2022-11-12T00:55:22.061Z,29.10
2022-11-12T00:57:49.187Z,62.90
2022-11-12T01:00:18.953Z,26.95
2022-11-12T01:02:50.721Z,33.92
2022-11-12T01:05:20.079Z,57.50
2022-11-12T01:07:53.121Z,79.43
2022-11-12T01:10:22.077Z,36.50
2022-11-12T01:12:49.100Z,77.05
2022-11-12T01:15:16.116Z,18.42
2022-11-12T01:17:43.106Z,46.45
2022-11-12T01:20:10.268Z,23.17
2022-11-12T01:22:37.207Z,20.60
2022-11-12T01:25:04.510Z,29.00
2022-11-12T01:27:31.496Z,24.10
2022-11-12T01:29:59.579Z,16.50
2022-11-12T01:32:28.009Z,32.53
2022-11-12T01:34:55.110Z,33.35
2022-11-12T01:37:22.054Z,11.98
2022-11-12T01:39:48.980Z,11.63
2022-11-12T01:42:15.941Z,18.83
2022-11-12T01:44:46.313Z,15.90
2022-11-12T01:47:33.303Z,11.60
2022-11-12T01:50:10.966Z,17.02
2022-11-12T01:53:09.317Z,15.98
2022-11-12T01:55:38.124Z,21.85
2022-11-12T01:58:10.474Z,13.05
2022-11-12T02:00:38.061Z,15.98
2022-11-12T02:03:11.698Z,16.45
2022-11-12T02:05:39.770Z,14.55
2022-11-12T02:08:11.426Z,13.35
2022-11-12T02:10:40.151Z,17.00
2022-11-12T02:13:27.604Z,10.20
2022-11-12T02:15:55.608Z,12.32
2022-11-12T02:18:22.593Z,18.85
2022-11-12T02:20:58.621Z,15.43
2022-11-12T02:23:25.630Z,12.95
2022-11-12T02:25:52.632Z,12.00
2022-11-12T02:28:19.674Z,28.13
2022-11-12T02:30:49.475Z,12.90
2022-11-12T02:33:16.451Z,14.93
2022-11-12T02:35:43.457Z,10.93
2022-11-12T02:38:10.876Z,15.30
2022-11-12T02:40:38.002Z,18.73
2022-11-12T02:43:04.955Z,19.45
2022-11-12T02:45:32.318Z,9.18
2022-11-12T02:47:59.290Z,24.52
2022-11-12T02:50:26.349Z,12.38
2022-11-12T02:52:53.332Z,14.95
2022-11-12T02:55:20.302Z,10.65
2022-11-12T02:57:47.285Z,31.80
2022-11-12T03:00:14.913Z,10.50
2022-11-12T03:02:59.037Z,20.30
2022-11-12T03:05:32.121Z,17.55
2022-11-12T03:08:01.178Z,14.02
2022-11-12T03:10:29.074Z,12.20
2022-11-12T03:13:00.665Z,30.88
2022-11-12T03:15:28.867Z,10.30
2022-11-12T03:17:58.061Z,30.45
2022-11-12T03:20:26.288Z,11.27
2022-11-12T03:23:05.039Z,11.45
2022-11-12T03:25:32.269Z,7.55
2022-11-12T03:28:03.318Z,21.33
2022-11-12T03:30:33.165Z,8.13
2022-11-12T03:33:00.193Z,7.82
2022-11-12T03:35:27.692Z,8.40
2022-11-12T03:37:54.833Z,11.23
2022-11-12T03:40:22.542Z,6.30
2022-11-12T03:42:51.882Z,15.82
2022-11-12T03:45:20.982Z,9.40
2022-11-12T03:47:50.144Z,14.32
2022-11-12T03:50:19.511Z,6.60
2022-11-12T03:52:48.243Z,10.70
2022-11-12T03:55:17.451Z,7.72
2022-11-12T03:57:44.649Z,12.82
2022-11-12T04:00:12.952Z,6.57
2022-11-12T04:02:39.986Z,8.20
2022-11-12T04:05:25.819Z,8.70
2022-11-12T04:08:26.060Z,8.80
2022-11-12T04:10:54.835Z,16.90
2022-11-12T04:13:27.695Z,7.30
2022-11-12T04:16:20.353Z,37.78
2022-11-12T04:19:08.320Z,16.60
2022-11-12T04:21:51.932Z,32.92
2022-11-12T04:24:40.485Z,26.83
2022-11-12T04:27:09.409Z,35.70
2022-11-12T04:29:55.371Z,37.05
2022-11-12T04:32:22.843Z,58.50
2022-11-12T04:34:49.887Z,18.23
2022-11-12T04:37:22.389Z,22.58
2022-11-12T04:39:52.063Z,57.83
2022-11-12T04:42:38.166Z,43.28
2022-11-12T04:45:14.319Z,29.63
2022-11-12T04:47:45.463Z,51.92
2022-11-12T04:50:17.896Z,34.90
2022-11-12T04:52:44.905Z,38.67
2022-11-12T04:55:12.410Z,30.67
2022-11-12T04:57:39.445Z,43.53
2022-11-12T05:00:07.053Z,23.38
2022-11-12T05:02:34.024Z,26.67
2022-11-12T05:05:01.060Z,12.13
2022-11-12T05:07:28.067Z,11.98
2022-11-12T05:09:55.058Z,7.30
2022-11-12T05:12:22.009Z,16.58
2022-11-12T05:14:48.998Z,47.92
2022-11-12T05:17:15.972Z,49.50
2022-11-12T05:19:42.965Z,79.68
2022-11-12T05:22:33.207Z,124.30
2022-11-12T05:25:00.116Z,61.60
2022-11-12T05:27:27.126Z,49.38
2022-11-12T05:29:54.136Z,42.85
2022-11-12T05:32:21.598Z,68.65
2022-11-12T05:34:48.731Z,63.03
2022-11-12T05:37:17.462Z,30.50
2022-11-12T05:39:44.528Z,67.10
2022-11-12T05:42:13.315Z,64.53
2022-11-12T05:44:41.587Z,105.03
2022-11-12T05:47:08.741Z,53.67
2022-11-12T05:49:35.683Z,57.83
2022-11-12T05:52:02.735Z,34.13
2022-11-12T05:54:30.275Z,56.22
2022-11-12T05:56:57.254Z,52.85
2022-11-12T05:59:24.736Z,46.00
2022-11-12T06:01:51.759Z,43.45
2022-11-12T06:04:18.875Z,49.85
2022-11-12T06:06:45.992Z,77.55
2022-11-12T06:09:13.238Z,48.10
2022-11-12T06:11:40.277Z,49.10
2022-11-12T06:14:07.696Z,53.50
2022-11-12T06:16:34.802Z,33.30
2022-11-12T06:19:01.881Z,36.10
2022-11-12T06:21:28.965Z,26.17
2022-11-12T06:24:00.536Z,48.20
2022-11-12T06:26:29.701Z,28.10
2022-11-12T06:28:57.215Z,40.55
2022-11-12T06:31:24.185Z,23.73
2022-11-12T06:33:51.695Z,42.60
2022-11-12T06:36:20.557Z,30.38
2022-11-12T06:38:47.994Z,34.22
2022-11-12T06:41:15.477Z,48.35
2022-11-12T06:43:42.894Z,22.73
2022-11-12T06:46:17.007Z,55.45
2022-11-12T06:48:43.957Z,25.63
2022-11-12T06:51:19.577Z,23.92
2022-11-12T06:53:47.041Z,25.65
2022-11-12T06:56:14.696Z,15.75
2022-11-12T06:58:42.139Z,17.35
2022-11-12T07:01:15.254Z,18.50
2022-11-12T07:03:44.336Z,31.50
2022-11-12T07:06:18.781Z,20.67
2022-11-12T07:08:51.505Z,32.28
2022-11-12T07:11:20.152Z,21.90
2022-11-12T07:13:47.878Z,18.00
2022-11-12T07:16:18.873Z,11.88
2022-11-12T07:18:47.502Z,30.67
2022-11-12T07:21:18.074Z,27.60
2022-11-12T07:23:45.938Z,11.27
2022-11-12T07:26:21.875Z,15.55
2022-11-12T07:28:50.910Z,16.17
2022-11-12T07:31:19.802Z,12.35
2022-11-12T07:33:49.063Z,8.90
2022-11-12T07:36:18.652Z,33.60
2022-11-12T07:38:46.450Z,35.00
2022-11-12T07:41:16.532Z,20.77
2022-11-12T07:43:46.332Z,21.45
2022-11-12T07:46:25.633Z,9.88
2022-11-12T07:48:53.300Z,23.98
2022-11-12T07:51:25.550Z,33.28
2022-11-12T07:53:58.956Z,16.75
2022-11-12T07:56:27.821Z,9.23
2022-11-12T07:58:54.854Z,27.95
2022-11-12T08:01:33.671Z,18.52
2022-11-12T08:04:02.333Z,10.13
2022-11-12T08:06:30.789Z,12.30
2022-11-12T08:08:59.982Z,12.50
2022-11-12T08:11:27.161Z,21.08
2022-11-12T08:13:54.645Z,12.73
2022-11-12T08:16:22.083Z,18.10
2022-11-12T08:18:50.365Z,14.73
2022-11-12T08:21:19.064Z,40.38
2022-11-12T08:23:46.956Z,25.10
2022-11-12T08:26:16.617Z,23.67
2022-11-12T08:28:43.739Z,15.93
2022-11-12T08:31:15.409Z,17.48
2022-11-12T08:33:42.710Z,12.15
2022-11-12T08:36:12.270Z,12.68
2022-11-12T08:38:40.000Z,13.52
2022-11-12T08:41:09.960Z,16.88
2022-11-12T08:43:38.982Z,11.52
2022-11-12T08:46:06.385Z,10.32
2022-11-12T08:48:34.632Z,8.27
2022-11-12T08:51:03.579Z,13.05
2022-11-12T08:53:30.703Z,10.05
2022-11-12T08:55:58.764Z,12.57
2022-11-12T08:58:26.691Z,11.82
2022-11-12T09:00:54.344Z,10.82
2022-11-12T09:03:25.222Z,11.00
2022-11-12T09:05:53.601Z,9.50
2022-11-12T09:08:23.137Z,9.30
2022-11-12T09:10:51.070Z,10.70
2022-11-12T09:13:18.547Z,10.80
2022-11-12T09:15:47.037Z,13.00
2022-11-12T09:18:16.969Z,10.40
2022-11-12T09:20:44.852Z,13.77
2022-11-12T09:23:14.816Z,9.75
2022-11-12T09:25:42.829Z,11.70
2022-11-12T09:28:11.023Z,9.45
2022-11-12T09:30:42.022Z,11.77
2022-11-12T09:33:09.003Z,12.07
2022-11-12T09:35:36.024Z,10.32
2022-11-12T09:38:03.016Z,11.05
2022-11-12T09:40:50.984Z,10.30
2022-11-12T09:43:33.790Z,13.80
2022-11-12T09:49:12.994Z,9.68
2022-11-12T09:52:03.666Z,9.60
2022-11-12T09:54:36.527Z,9.93
2022-11-12T09:57:03.891Z,10.18
2022-11-12T09:59:34.763Z,13.07
2022-11-12T10:02:39.986Z,11.60
2022-11-12T10:05:24.168Z,13.05
2022-11-12T10:08:24.872Z,13.10
2022-11-12T10:11:15.453Z,11.63
2022-11-12T10:14:04.820Z,11.15
2022-11-12T10:16:43.704Z,12.98
2022-11-12T10:19:19.205Z,10.60
2022-11-12T10:22:07.124Z,14.82
2022-11-12T10:24:37.222Z,14.30
2022-11-12T10:27:27.560Z,10.95
2022-11-12T10:29:57.695Z,13.15
2022-11-12T10:32:24.685Z,11.30
2022-11-12T10:34:51.642Z,9.45
2022-11-12T10:37:29.007Z,8.95
2022-11-12T10:39:56.064Z,12.70
2022-11-12T10:42:24.202Z,16.10
2022-11-12T10:44:52.007Z,12.63
2022-11-12T10:47:24.927Z,8.88
2022-11-12T10:50:03.635Z,9.70
2022-11-12T10:52:31.897Z,9.80
2022-11-12T10:55:21.774Z,11.93
2022-11-12T10:58:06.695Z,10.57
2022-11-12T11:00:34.355Z,7.10
2022-11-12T11:03:06.924Z,8.25
2022-11-12T11:05:37.145Z,9.30
2022-11-12T11:08:05.830Z,9.02
2022-11-12T11:10:36.322Z,8.35
2022-11-12T11:13:26.242Z,9.43
2022-11-12T11:16:03.287Z,8.10
2022-11-12T11:18:34.483Z,6.88
2022-11-12T11:21:15.360Z,6.90
2022-11-12T11:23:54.327Z,7.20
2022-11-12T11:26:57.175Z,6.85
2022-11-12T11:29:36.031Z,6.30
2022-11-12T11:32:15.566Z,7.35
2022-11-12T11:34:54.654Z,8.75
2022-11-12T11:37:30.787Z,6.25
2022-11-12T11:40:20.824Z,11.25
2022-11-12T11:43:22.161Z,6.07
2022-11-12T11:45:51.814Z,6.95
2022-11-12T11:48:42.447Z,7.28
2022-11-12T11:51:48.022Z,11.57
2022-11-12T11:54:42.236Z,7.10
2022-11-12T11:57:17.440Z,7.43
2022-11-12T11:59:47.486Z,5.45
2022-11-12T12:03:06.134Z,8.40
2022-11-12T12:05:42.283Z,5.95
2022-11-12T12:08:19.020Z,6.40
2022-11-12T12:11:20.019Z,6.60
2022-11-12T12:14:02.099Z,7.35
2022-11-12T12:16:54.100Z,5.65
2022-11-12T12:19:39.457Z,6.43
2022-11-12T12:22:12.798Z,5.90
2022-11-12T12:24:55.734Z,6.07
2022-11-12T12:27:27.807Z,6.35
2022-11-12T12:30:04.359Z,5.93
2022-11-12T12:32:51.491Z,4.40
2022-11-12T12:35:44.685Z,6.18
2022-11-12T12:38:29.113Z,5.53
2022-11-12T12:41:05.670Z,5.60
2022-11-12T12:44:02.769Z,5.15
2022-11-12T12:46:37.365Z,5.80
2022-11-12T12:49:06.294Z,6.25
2022-11-12T12:51:34.586Z,5.63
2022-11-12T12:54:01.685Z,5.28
2022-11-12T12:56:31.688Z,3.78
2022-11-12T12:59:04.055Z,5.22
2022-11-12T13:01:34.469Z,6.20
2022-11-12T13:04:09.003Z,5.07
2022-11-12T13:06:38.371Z,5.60
2022-11-12T13:09:21.688Z,4.63
2022-11-12T13:12:06.581Z,5.03
2022-11-12T13:14:36.441Z,5.07
2022-11-12T13:17:09.337Z,5.28
2022-11-12T13:19:38.265Z,5.78
2022-11-12T13:22:17.529Z,5.30
2022-11-12T13:25:02.882Z,5.65
2022-11-12T13:27:45.829Z,6.25
2022-11-12T13:30:18.168Z,8.38
2022-11-12T13:32:48.263Z,5.68
2022-11-12T13:35:22.541Z,5.53
2022-11-12T13:38:15.996Z,9.52
2022-11-12T13:40:50.568Z,4.97
2022-11-12T13:43:35.955Z,5.35
2022-11-12T13:46:10.833Z,5.75
2022-11-12T13:48:53.077Z,5.50
2022-11-12T13:51:32.046Z,8.00
2022-11-12T13:53:59.207Z,6.60
2022-11-12T13:56:35.185Z,7.32
2022-11-12T13:59:31.641Z,4.85
2022-11-12T14:02:18.547Z,7.13
2022-11-12T14:04:46.186Z,5.30
2022-11-12T14:07:35.391Z,8.35
2022-11-12T14:10:49.867Z,6.20
2022-11-12T14:13:26.116Z,6.07
2022-11-12T14:16:14.764Z,5.22
2022-11-12T14:18:53.121Z,6.55
2022-11-12T14:21:20.705Z,6.20
2022-11-12T14:23:50.007Z,4.43
2022-11-12T14:26:36.844Z,6.35
2022-11-12T14:29:05.318Z,5.07
2022-11-12T14:31:32.885Z,5.47
2022-11-12T14:34:23.004Z,7.57
2022-11-12T14:36:50.781Z,7.68
2022-11-12T14:39:17.853Z,5.35
2022-11-12T14:41:49.398Z,5.70
2022-11-12T14:44:37.064Z,8.70
2022-11-12T14:47:04.553Z,6.15
2022-11-12T14:49:48.196Z,23.95
2022-11-12T14:52:22.960Z,16.40
2022-11-12T14:54:58.235Z,10.23
2022-11-12T14:57:30.972Z,17.83
2022-11-12T14:59:58.530Z,10.05
2022-11-12T15:02:42.761Z,13.55
2022-11-12T15:05:20.909Z,9.45
2022-11-12T15:07:56.902Z,12.90
2022-11-12T15:10:34.631Z,11.15
2022-11-12T15:13:27.139Z,8.60
2022-11-12T15:16:01.688Z,10.18
2022-11-12T15:18:30.786Z,12.80
2022-11-12T15:21:16.202Z,10.20
2022-11-12T15:24:12.260Z,13.27
2022-11-12T15:26:42.234Z,14.40
2022-11-12T15:29:15.808Z,8.93
2022-11-12T15:32:03.532Z,11.82
2022-11-12T15:34:34.627Z,12.60
2022-11-12T15:37:05.743Z,12.77
2022-11-12T15:39:41.800Z,19.60
2022-11-12T15:42:17.516Z,27.55
2022-11-12T15:44:45.728Z,22.92
2022-11-12T15:47:21.920Z,14.65
2022-11-12T15:49:54.334Z,25.70
2022-11-12T15:52:22.466Z,27.35
2022-11-12T15:54:49.710Z,34.08
2022-11-12T15:57:27.102Z,39.75
2022-11-12T16:00:08.800Z,33.70
2022-11-12T16:02:35.961Z,30.50
2022-11-12T16:05:02.956Z,35.05
2022-11-12T16:07:29.978Z,32.03
2022-11-12T16:09:56.975Z,33.70
2022-11-12T16:12:24.865Z,29.95
2022-11-12T16:14:51.946Z,28.85
2022-11-12T16:17:19.667Z,29.52
2022-11-12T16:19:46.751Z,29.33
2022-11-12T16:22:14.110Z,27.35
2022-11-12T16:24:42.183Z,30.15
2022-11-12T16:27:14.596Z,34.67
2022-11-12T16:29:42.219Z,36.33
2022-11-12T16:32:15.675Z,35.53
2022-11-12T16:34:42.663Z,34.80
2022-11-12T16:37:13.039Z,44.00
2022-11-12T16:39:40.507Z,34.38
2022-11-12T16:42:11.067Z,35.92
2022-11-12T16:44:38.165Z,38.88
2022-11-12T16:47:06.058Z,41.70
2022-11-12T16:49:38.302Z,32.80
2022-11-12T16:52:05.822Z,31.85
2022-11-12T16:54:32.788Z,33.53
2022-11-12T16:57:00.035Z,31.15
2022-11-12T16:59:27.266Z,38.10
2022-11-12T17:01:54.347Z,36.25
2022-11-12T17:04:24.658Z,32.00
2022-11-12T17:06:51.902Z,36.22
2022-11-12T17:09:19.341Z,30.60
2022-11-12T17:11:46.814Z,35.92
2022-11-12T17:14:13.882Z,34.38
2022-11-12T17:16:41.113Z,32.40
2022-11-12T17:19:10.709Z,27.13
2022-11-12T17:21:38.076Z,31.50
2022-11-12T17:24:06.183Z,31.13
2022-11-12T17:26:33.626Z,35.80
2022-11-12T17:29:06.450Z,36.45
2022-11-12T17:31:36.929Z,37.20
2022-11-12T17:34:07.085Z,33.60
2022-11-12T17:36:36.991Z,36.22
2022-11-12T17:39:13.239Z,33.72
2022-11-12T17:41:41.787Z,30.83
2022-11-12T17:44:13.310Z,34.25
2022-11-12T17:46:40.594Z,34.35
2022-11-12T17:49:10.362Z,32.15
2022-11-12T17:51:37.908Z,34.28
2022-11-12T17:54:05.809Z,42.28
2022-11-12T17:56:36.907Z,37.53
2022-11-12T17:59:05.120Z,29.73
2022-11-12T18:01:34.058Z,35.75
2022-11-12T18:04:02.356Z,32.63
2022-11-12T18:06:34.630Z,38.55
2022-11-12T18:09:15.047Z,38.95
2022-11-12T18:11:46.491Z,36.30
2022-11-12T18:14:15.010Z,31.45
2022-11-12T18:16:43.364Z,36.50
2022-11-12T18:19:11.859Z,20.65
2022-11-12T18:21:40.877Z,20.10
2022-11-12T18:24:13.830Z,30.60
2022-11-12T18:26:41.625Z,37.67
2022-11-12T18:29:09.242Z,22.90
2022-11-12T18:31:37.259Z,19.45
2022-11-12T18:34:04.810Z,27.10
2022-11-12T18:36:32.957Z,26.80
2022-11-12T18:39:03.870Z,24.98
2022-11-12T18:41:32.851Z,26.20
2022-11-12T18:44:01.355Z,24.30
2022-11-12T18:46:30.500Z,18.02
2022-11-12T18:48:58.253Z,18.90
2022-11-12T18:51:26.482Z,18.65
2022-11-12T18:53:54.245Z,22.30
2022-11-12T18:56:22.528Z,22.98
2022-11-12T18:58:51.103Z,26.00
2022-11-12T19:01:21.341Z,30.50
2022-11-12T19:03:52.579Z,27.73
2022-11-12T19:06:20.040Z,26.85
2022-11-12T19:08:47.879Z,27.58
2022-11-12T19:11:17.172Z,31.25
2022-11-12T19:13:44.375Z,29.60
2022-11-12T19:16:17.582Z,29.55
2022-11-12T19:18:46.327Z,34.42
2022-11-12T19:21:24.871Z,33.20
2022-11-12T19:23:55.445Z,39.05
2022-11-12T19:26:24.519Z,39.08
2022-11-12T19:28:52.233Z,44.45
2022-11-12T19:31:22.817Z,43.60
2022-11-12T19:33:51.343Z,49.67
2022-11-12T19:36:22.303Z,44.15
2022-11-12T19:38:55.324Z,42.05
2022-11-12T19:41:22.776Z,36.25
2022-11-12T19:43:50.790Z,38.17
2022-11-12T19:46:18.557Z,34.65
2022-11-12T19:48:46.860Z,38.15
2022-11-12T19:51:14.789Z,47.85
2022-11-12T19:53:44.848Z,46.75
2022-11-12T19:56:18.075Z,41.08
2022-11-12T19:58:46.635Z,39.95
2022-11-12T20:01:18.049Z,37.78
2022-11-12T20:03:45.406Z,40.85
2022-11-12T20:06:19.730Z,43.50
2022-11-12T20:08:47.440Z,41.67
2022-11-12T20:11:16.754Z,42.58
2022-11-12T20:13:45.153Z,41.28
2022-11-12T20:16:17.545Z,40.30
2022-11-12T20:18:51.024Z,33.30
2022-11-12T20:21:18.998Z,43.88
2022-11-12T20:23:48.429Z,36.88
2022-11-12T20:26:16.483Z,31.20
2022-11-12T20:28:44.909Z,27.75
2022-11-12T20:31:15.150Z,34.15
2022-11-12T20:33:43.205Z,29.70
2022-11-12T20:36:13.306Z,29.73
2022-11-12T20:38:43.575Z,28.92
2022-11-12T20:41:19.414Z,30.77
2022-11-12T20:43:47.364Z,29.48
2022-11-12T20:46:15.172Z,42.05
2022-11-12T20:48:43.723Z,28.98
2022-11-12T20:51:24.173Z,27.27
2022-11-12T20:53:59.355Z,29.60
2022-11-12T20:56:29.355Z,29.42
2022-11-12T20:58:56.969Z,25.77
2022-11-12T21:01:25.373Z,27.30
2022-11-12T21:03:53.100Z,29.38
2022-11-12T21:06:23.506Z,26.15
2022-11-12T21:08:51.664Z,35.42
2022-11-12T21:11:21.761Z,31.70
2022-11-12T21:13:50.004Z,29.13
2022-11-12T21:16:17.981Z,25.40
2022-11-12T21:18:45.301Z,27.08
2022-11-12T21:21:15.279Z,30.15
2022-11-12T21:23:44.401Z,28.35
2022-11-12T21:26:17.308Z,24.27
2022-11-12T21:28:45.976Z,25.25
2022-11-12T21:31:29.244Z,27.38
2022-11-12T21:34:00.396Z,33.90
2022-11-12T21:36:28.523Z,30.42
2022-11-12T21:38:55.707Z,26.52
2022-11-12T21:41:27.676Z,28.73
2022-11-12T21:43:55.164Z,27.75
2022-11-12T21:46:25.001Z,23.55
2022-11-12T21:48:55.392Z,25.15
2022-11-12T21:51:27.671Z,21.08
2022-11-12T21:54:02.640Z,19.02
2022-11-12T21:56:30.140Z,26.00
2022-11-12T21:59:01.755Z,21.67
2022-11-12T22:01:31.346Z,20.80
2022-11-12T22:03:59.934Z,19.85
2022-11-12T22:06:29.516Z,23.85
2022-11-12T22:08:58.480Z,20.50
2022-11-12T22:11:26.827Z,17.10
2022-11-12T22:13:53.993Z,20.58
2022-11-12T22:16:26.308Z,18.88
2022-11-12T22:18:55.165Z,20.92
2022-11-12T22:21:27.386Z,18.67
2022-11-12T22:23:55.987Z,16.00
2022-11-12T22:26:25.721Z,11.43
2022-11-12T22:28:54.395Z,17.08
2022-11-12T22:31:24.491Z,12.05
2022-11-12T22:33:51.486Z,19.17
2022-11-12T22:36:21.201Z,19.85
2022-11-12T22:38:50.523Z,14.93
2022-11-12T22:41:24.828Z,11.88
2022-11-12T22:43:54.308Z,17.25
2022-11-12T22:46:24.096Z,16.50
2022-11-12T22:48:51.344Z,14.18
2022-11-12T22:51:21.446Z,18.02
2022-11-12T22:53:53.102Z,13.85
2022-11-12T22:56:20.283Z,15.40
2022-11-12T22:58:48.337Z,20.55
2022-11-12T23:01:25.906Z,19.25
2022-11-12T23:03:56.326Z,14.75
2022-11-12T23:06:24.257Z,19.77
2022-11-12T23:08:53.073Z,13.05
2022-11-12T23:11:21.337Z,15.32
2022-11-12T23:13:49.143Z,20.52
2022-11-12T23:16:23.994Z,25.40
2022-11-12T23:18:52.844Z,25.67
2022-11-12T23:21:24.478Z,19.50
2022-11-12T23:23:51.585Z,19.08
2022-11-12T23:26:21.159Z,21.90
2022-11-12T23:28:49.146Z,23.80
2022-11-12T23:31:22.854Z,22.75
2022-11-12T23:33:51.742Z,26.65
2022-11-12T23:36:20.168Z,23.92
2022-11-12T23:38:48.053Z,28.90
2022-11-12T23:41:22.871Z,26.70
2022-11-12T23:43:50.563Z,28.02
2022-11-12T23:46:17.656Z,26.13
2022-11-12T23:48:45.236Z,21.42
2022-11-12T23:51:18.012Z,22.70
2022-11-12T23:53:45.728Z,24.33
2022-11-12T23:56:15.874Z,27.70
2022-11-12T23:58:43.438Z,27.92
